sensor_id;sensor_type;location;lat;lon;timestamp;temperature;humidity
5128;DHT22;2582;48.770;9.190;2023-01-28T00:00:55;3.30;99.90
5128;DHT22;2582;48.770;9.190;2023-01-28T00:03:20;3.10;99.90
5128;DHT22;2582;48.770;9.190;2023-01-28T00:05:46;3.20;99.90
5128;DHT22;2582;48.770;9.190;2023-01-28T00:08:12;3.30;99.90
5128;DHT22;2582;48.770;9.190;2023-01-28T00:10:39;2.90;99.90
5128;DHT22;2582;48.770;9.190;2023-01-28T00:13:06;3.10;99.90
5128;DHT22;2582;48.770;9.190;2023-01-28T00:15:31;2.90;99.90
5128;DHT22;2582;48.770;9.190;2023-01-28T00:17:57;2.80;99.90
5128;DHT22;2582;48.770;9.190;2023-01-28T00:20:23;2.70;99.90
5128;DHT22;2582;48.770;9.190;2023-01-28T00:22:48;2.70;99.90
5128;DHT22;2582;48.770;9.190;2023-01-28T00:25:14;2.60;99.90
5128;DHT22;2582;48.770;9.190;2023-01-28T00:27:40;2.70;99.90
5128;DHT22;2582;48.770;9.190;2023-01-28T00:30:06;2.80;99.90
5128;DHT22;2582;48.770;9.190;2023-01-28T00:32:32;2.70;99.90
5128;DHT22;2582;48.770;9.190;2023-01-28T00:34:57;2.70;99.90
5128;DHT22;2582;48.770;9.190;2023-01-28T00:37:23;2.90;99.90
5128;DHT22;2582;48.770;9.190;2023-01-28T00:39:48;2.90;99.90
5128;DHT22;2582;48.770;9.190;2023-01-28T00:42:14;2.80;99.90
5128;DHT22;2582;48.770;9.190;2023-01-28T00:44:40;3.00;99.90
5128;DHT22;2582;48.770;9.190;2023-01-28T00:47:06;2.80;99.90
5128;DHT22;2582;48.770;9.190;2023-01-28T00:49:31;2.80;99.90
5128;DHT22;2582;48.770;9.190;2023-01-28T00:51:57;2.80;99.90
5128;DHT22;2582;48.770;9.190;2023-01-28T00:54:22;2.90;99.90
5128;DHT22;2582;48.770;9.190;2023-01-28T00:56:48;3.10;99.90
5128;DHT22;2582;48.770;9.190;2023-01-28T00:59:14;3.20;99.90
5128;DHT22;2582;48.770;9.190;2023-01-28T01:01:39;3.20;99.90
5128;DHT22;2582;48.770;9.190;2023-01-28T01:04:05;3.40;99.90
5128;DHT22;2582;48.770;9.190;2023-01-28T01:06:32;3.50;99.90
5128;DHT22;2582;48.770;9.190;2023-01-28T01:08:59;3.40;99.90
5128;DHT22;2582;48.770;9.190;2023-01-28T01:11:25;3.40;99.90
5128;DHT22;2582;48.770;9.190;2023-01-28T01:13:55;3.40;99.90
5128;DHT22;2582;48.770;9.190;2023-01-28T01:16:23;3.50;99.90
5128;DHT22;2582;48.770;9.190;2023-01-28T01:18:51;3.50;99.90
5128;DHT22;2582;48.770;9.190;2023-01-28T01:21:18;3.60;99.90
5128;DHT22;2582;48.770;9.190;2023-01-28T01:23:45;3.30;99.90
5128;DHT22;2582;48.770;9.190;2023-01-28T01:26:12;3.50;99.90
5128;DHT22;2582;48.770;9.190;2023-01-28T01:28:38;3.60;99.90
5128;DHT22;2582;48.770;9.190;2023-01-28T01:31:06;3.70;99.90
5128;DHT22;2582;48.770;9.190;2023-01-28T01:33:32;3.70;99.90
5128;DHT22;2582;48.770;9.190;2023-01-28T01:35:58;3.70;99.90
5128;DHT22;2582;48.770;9.190;2023-01-28T01:38:24;3.70;99.90
5128;DHT22;2582;48.770;9.190;2023-01-28T01:40:50;3.50;99.90
5128;DHT22;2582;48.770;9.190;2023-01-28T01:43:17;3.30;99.90
5128;DHT22;2582;48.770;9.190;2023-01-28T01:45:43;3.30;99.90
5128;DHT22;2582;48.770;9.190;2023-01-28T01:48:22;3.20;99.90
5128;DHT22;2582;48.770;9.190;2023-01-28T01:50:54;3.30;99.90
5128;DHT22;2582;48.770;9.190;2023-01-28T01:53:24;3.30;99.90
5128;DHT22;2582;48.770;9.190;2023-01-28T01:55:52;3.40;99.90
5128;DHT22;2582;48.770;9.190;2023-01-28T01:58:23;3.40;99.90
5128;DHT22;2582;48.770;9.190;2023-01-28T02:00:50;3.20;99.90
5128;DHT22;2582;48.770;9.190;2023-01-28T02:03:20;2.90;99.90
5128;DHT22;2582;48.770;9.190;2023-01-28T02:05:49;2.90;99.90
5128;DHT22;2582;48.770;9.190;2023-01-28T02:08:15;3.20;99.90
5128;DHT22;2582;48.770;9.190;2023-01-28T02:10:52;3.30;99.90
5128;DHT22;2582;48.770;9.190;2023-01-28T02:13:21;3.30;99.90
5128;DHT22;2582;48.770;9.190;2023-01-28T02:15:50;3.40;99.90
5128;DHT22;2582;48.770;9.190;2023-01-28T02:18:16;3.30;99.90
5128;DHT22;2582;48.770;9.190;2023-01-28T02:29:26;3.10;99.90
5128;DHT22;2582;48.770;9.190;2023-01-28T02:32:16;3.10;99.90
5128;DHT22;2582;48.770;9.190;2023-01-28T02:40:41;3.40;99.90
5128;DHT22;2582;48.770;9.190;2023-01-28T02:43:44;3.50;99.90
5128;DHT22;2582;48.770;9.190;2023-01-28T02:49:27;3.80;99.90
5128;DHT22;2582;48.770;9.190;2023-01-28T02:54:57;3.70;99.90
5128;DHT22;2582;48.770;9.190;2023-01-28T03:05:23;3.00;99.90
5128;DHT22;2582;48.770;9.190;2023-01-28T03:07:51;2.90;99.90
5128;DHT22;2582;48.770;9.190;2023-01-28T03:10:20;2.80;99.90
5128;DHT22;2582;48.770;9.190;2023-01-28T03:12:53;2.70;99.90
5128;DHT22;2582;48.770;9.190;2023-01-28T03:15:40;2.70;99.90
5128;DHT22;2582;48.770;9.190;2023-01-28T03:18:32;3.00;99.90
5128;DHT22;2582;48.770;9.190;2023-01-28T03:21:31;2.90;99.90
5128;DHT22;2582;48.770;9.190;2023-01-28T03:24:20;2.90;99.90
5128;DHT22;2582;48.770;9.190;2023-01-28T03:27:14;2.80;99.90
5128;DHT22;2582;48.770;9.190;2023-01-28T03:30:07;2.90;99.90
5128;DHT22;2582;48.770;9.190;2023-01-28T03:32:52;2.90;99.90
5128;DHT22;2582;48.770;9.190;2023-01-28T03:35:38;2.90;99.90
5128;DHT22;2582;48.770;9.190;2023-01-28T03:38:23;2.70;99.90
5128;DHT22;2582;48.770;9.190;2023-01-28T03:40:50;2.80;99.90
5128;DHT22;2582;48.770;9.190;2023-01-28T03:43:16;3.10;99.90
5128;DHT22;2582;48.770;9.190;2023-01-28T03:45:42;3.30;99.90
5128;DHT22;2582;48.770;9.190;2023-01-28T03:48:07;3.30;99.90
5128;DHT22;2582;48.770;9.190;2023-01-28T03:50:33;3.10;99.90
5128;DHT22;2582;48.770;9.190;2023-01-28T03:52:59;3.00;99.90
5128;DHT22;2582;48.770;9.190;2023-01-28T03:55:36;3.10;99.90
5128;DHT22;2582;48.770;9.190;2023-01-28T03:58:02;3.30;99.90
5128;DHT22;2582;48.770;9.190;2023-01-28T04:00:30;2.90;99.90
5128;DHT22;2582;48.770;9.190;2023-01-28T04:02:57;2.80;99.90
5128;DHT22;2582;48.770;9.190;2023-01-28T04:05:23;2.80;99.90
5128;DHT22;2582;48.770;9.190;2023-01-28T04:07:53;2.80;99.90
5128;DHT22;2582;48.770;9.190;2023-01-28T04:10:18;2.90;99.90
5128;DHT22;2582;48.770;9.190;2023-01-28T04:12:44;3.20;99.90
5128;DHT22;2582;48.770;9.190;2023-01-28T04:15:10;3.20;99.90
5128;DHT22;2582;48.770;9.190;2023-01-28T04:17:46;3.00;99.90
5128;DHT22;2582;48.770;9.190;2023-01-28T04:20:12;2.90;99.90
5128;DHT22;2582;48.770;9.190;2023-01-28T04:22:38;2.90;99.90
5128;DHT22;2582;48.770;9.190;2023-01-28T04:25:04;3.10;99.90
5128;DHT22;2582;48.770;9.190;2023-01-28T04:27:29;3.20;99.90
5128;DHT22;2582;48.770;9.190;2023-01-28T04:29:55;3.10;99.90
5128;DHT22;2582;48.770;9.190;2023-01-28T04:32:20;2.80;99.90
5128;DHT22;2582;48.770;9.190;2023-01-28T04:34:46;3.00;99.90
5128;DHT22;2582;48.770;9.190;2023-01-28T04:37:11;3.00;99.90
5128;DHT22;2582;48.770;9.190;2023-01-28T04:39:37;2.80;99.90
5128;DHT22;2582;48.770;9.190;2023-01-28T04:42:03;2.60;99.90
5128;DHT22;2582;48.770;9.190;2023-01-28T04:44:28;2.50;99.90
5128;DHT22;2582;48.770;9.190;2023-01-28T04:46:54;2.60;99.90
5128;DHT22;2582;48.770;9.190;2023-01-28T04:49:19;2.70;99.90
5128;DHT22;2582;48.770;9.190;2023-01-28T04:51:45;2.50;99.90
5128;DHT22;2582;48.770;9.190;2023-01-28T04:54:10;2.60;99.90
5128;DHT22;2582;48.770;9.190;2023-01-28T04:56:36;2.70;99.90
5128;DHT22;2582;48.770;9.190;2023-01-28T04:59:01;3.00;99.90
5128;DHT22;2582;48.770;9.190;2023-01-28T05:01:28;3.10;99.90
5128;DHT22;2582;48.770;9.190;2023-01-28T05:03:54;3.30;99.90
5128;DHT22;2582;48.770;9.190;2023-01-28T05:06:19;3.40;99.90
5128;DHT22;2582;48.770;9.190;2023-01-28T05:08:45;3.40;99.90
5128;DHT22;2582;48.770;9.190;2023-01-28T05:11:11;3.40;99.90
5128;DHT22;2582;48.770;9.190;2023-01-28T05:13:37;3.10;99.90
5128;DHT22;2582;48.770;9.190;2023-01-28T05:16:03;3.20;99.90
5128;DHT22;2582;48.770;9.190;2023-01-28T05:18:28;3.30;99.90
5128;DHT22;2582;48.770;9.190;2023-01-28T05:20:54;3.40;99.90
5128;DHT22;2582;48.770;9.190;2023-01-28T05:23:19;3.50;99.90
5128;DHT22;2582;48.770;9.190;2023-01-28T05:25:45;3.60;99.90
5128;DHT22;2582;48.770;9.190;2023-01-28T05:28:10;3.60;99.90
5128;DHT22;2582;48.770;9.190;2023-01-28T05:30:37;3.40;99.90
5128;DHT22;2582;48.770;9.190;2023-01-28T05:33:03;3.50;99.90
5128;DHT22;2582;48.770;9.190;2023-01-28T05:35:29;3.60;99.90
5128;DHT22;2582;48.770;9.190;2023-01-28T05:37:54;3.60;99.90
5128;DHT22;2582;48.770;9.190;2023-01-28T05:40:20;3.30;99.90
5128;DHT22;2582;48.770;9.190;2023-01-28T05:42:45;3.10;99.90
5128;DHT22;2582;48.770;9.190;2023-01-28T05:45:11;3.20;99.90
5128;DHT22;2582;48.770;9.190;2023-01-28T05:47:37;3.30;99.90
5128;DHT22;2582;48.770;9.190;2023-01-28T05:50:04;3.40;99.90
5128;DHT22;2582;48.770;9.190;2023-01-28T05:52:30;3.50;99.90
5128;DHT22;2582;48.770;9.190;2023-01-28T05:54:56;3.50;99.90
5128;DHT22;2582;48.770;9.190;2023-01-28T05:57:21;3.70;99.90
5128;DHT22;2582;48.770;9.190;2023-01-28T05:59:47;3.70;99.90
5128;DHT22;2582;48.770;9.190;2023-01-28T06:02:12;3.40;99.90
5128;DHT22;2582;48.770;9.190;2023-01-28T06:04:38;3.40;99.90
5128;DHT22;2582;48.770;9.190;2023-01-28T06:07:04;3.40;99.90
5128;DHT22;2582;48.770;9.190;2023-01-28T06:09:29;3.30;99.90
5128;DHT22;2582;48.770;9.190;2023-01-28T06:11:55;3.50;99.90
5128;DHT22;2582;48.770;9.190;2023-01-28T06:14:20;3.50;99.90
5128;DHT22;2582;48.770;9.190;2023-01-28T06:16:46;3.60;99.90
5128;DHT22;2582;48.770;9.190;2023-01-28T06:19:11;3.70;99.90
5128;DHT22;2582;48.770;9.190;2023-01-28T06:21:37;3.80;99.90
5128;DHT22;2582;48.770;9.190;2023-01-28T06:24:03;3.80;99.90
5128;DHT22;2582;48.770;9.190;2023-01-28T06:26:28;3.90;99.90
5128;DHT22;2582;48.770;9.190;2023-01-28T06:28:54;3.90;99.90
5128;DHT22;2582;48.770;9.190;2023-01-28T06:31:20;3.90;99.90
5128;DHT22;2582;48.770;9.190;2023-01-28T06:33:46;4.00;99.90
5128;DHT22;2582;48.770;9.190;2023-01-28T06:36:11;4.10;99.90
5128;DHT22;2582;48.770;9.190;2023-01-28T06:38:37;4.10;99.90
5128;DHT22;2582;48.770;9.190;2023-01-28T06:41:03;4.10;99.90
5128;DHT22;2582;48.770;9.190;2023-01-28T06:43:28;4.10;99.90
5128;DHT22;2582;48.770;9.190;2023-01-28T06:45:58;4.10;99.90
5128;DHT22;2582;48.770;9.190;2023-01-28T06:48:25;4.20;99.90
5128;DHT22;2582;48.770;9.190;2023-01-28T06:50:51;4.20;99.90
5128;DHT22;2582;48.770;9.190;2023-01-28T06:53:17;4.10;99.90
5128;DHT22;2582;48.770;9.190;2023-01-28T06:55:43;4.10;99.90
5128;DHT22;2582;48.770;9.190;2023-01-28T06:58:09;3.90;99.90
5128;DHT22;2582;48.770;9.190;2023-01-28T07:00:35;3.60;99.90
5128;DHT22;2582;48.770;9.190;2023-01-28T07:03:02;3.70;99.90
5128;DHT22;2582;48.770;9.190;2023-01-28T07:05:28;3.80;99.90
5128;DHT22;2582;48.770;9.190;2023-01-28T07:07:53;3.90;99.90
5128;DHT22;2582;48.770;9.190;2023-01-28T07:10:19;4.00;99.90
5128;DHT22;2582;48.770;9.190;2023-01-28T07:12:44;3.60;99.90
5128;DHT22;2582;48.770;9.190;2023-01-28T07:15:10;3.70;99.90
5128;DHT22;2582;48.770;9.190;2023-01-28T07:17:40;3.70;99.90
5128;DHT22;2582;48.770;9.190;2023-01-28T07:20:07;3.80;99.90
5128;DHT22;2582;48.770;9.190;2023-01-28T07:22:33;3.80;99.90
5128;DHT22;2582;48.770;9.190;2023-01-28T07:24:59;3.80;99.90
5128;DHT22;2582;48.770;9.190;2023-01-28T07:27:25;3.90;99.90
5128;DHT22;2582;48.770;9.190;2023-01-28T07:29:51;3.90;99.90
5128;DHT22;2582;48.770;9.190;2023-01-28T07:32:17;3.60;99.90
5128;DHT22;2582;48.770;9.190;2023-01-28T07:34:42;3.30;99.90
5128;DHT22;2582;48.770;9.190;2023-01-28T07:37:08;3.10;99.90
5128;DHT22;2582;48.770;9.190;2023-01-28T07:39:34;3.30;99.90
5128;DHT22;2582;48.770;9.190;2023-01-28T07:42:00;3.50;99.90
5128;DHT22;2582;48.770;9.190;2023-01-28T07:44:26;3.40;99.90
5128;DHT22;2582;48.770;9.190;2023-01-28T07:46:52;3.30;99.90
5128;DHT22;2582;48.770;9.190;2023-01-28T07:49:18;3.40;99.90
5128;DHT22;2582;48.770;9.190;2023-01-28T07:51:43;3.20;99.90
5128;DHT22;2582;48.770;9.190;2023-01-28T07:54:11;3.50;99.90
5128;DHT22;2582;48.770;9.190;2023-01-28T07:56:37;3.70;99.90
5128;DHT22;2582;48.770;9.190;2023-01-28T07:59:03;3.80;99.90
5128;DHT22;2582;48.770;9.190;2023-01-28T08:01:28;3.90;99.90
5128;DHT22;2582;48.770;9.190;2023-01-28T08:03:54;3.60;99.90
5128;DHT22;2582;48.770;9.190;2023-01-28T08:06:19;3.60;99.90
5128;DHT22;2582;48.770;9.190;2023-01-28T08:08:46;3.80;99.90
5128;DHT22;2582;48.770;9.190;2023-01-28T08:11:12;3.90;99.90
5128;DHT22;2582;48.770;9.190;2023-01-28T08:13:37;3.80;99.90
5128;DHT22;2582;48.770;9.190;2023-01-28T08:16:03;3.60;99.90
5128;DHT22;2582;48.770;9.190;2023-01-28T08:18:29;3.50;99.90
5128;DHT22;2582;48.770;9.190;2023-01-28T08:20:55;3.40;99.90
5128;DHT22;2582;48.770;9.190;2023-01-28T08:23:22;3.10;99.90
5128;DHT22;2582;48.770;9.190;2023-01-28T08:25:48;3.10;99.90
5128;DHT22;2582;48.770;9.190;2023-01-28T08:28:14;3.30;99.90
5128;DHT22;2582;48.770;9.190;2023-01-28T08:30:40;3.40;99.90
5128;DHT22;2582;48.770;9.190;2023-01-28T08:33:08;3.40;99.90
5128;DHT22;2582;48.770;9.190;2023-01-28T08:35:34;3.50;99.90
5128;DHT22;2582;48.770;9.190;2023-01-28T08:38:01;3.60;99.90
5128;DHT22;2582;48.770;9.190;2023-01-28T08:40:27;3.40;99.90
5128;DHT22;2582;48.770;9.190;2023-01-28T08:42:53;3.20;99.90
5128;DHT22;2582;48.770;9.190;2023-01-28T08:45:20;3.00;99.90
5128;DHT22;2582;48.770;9.190;2023-01-28T08:47:55;3.30;99.90
5128;DHT22;2582;48.770;9.190;2023-01-28T08:50:22;3.70;99.90
5128;DHT22;2582;48.770;9.190;2023-01-28T08:52:53;3.80;99.90
5128;DHT22;2582;48.770;9.190;2023-01-28T08:55:19;3.80;99.90
5128;DHT22;2582;48.770;9.190;2023-01-28T08:57:44;3.50;99.90
5128;DHT22;2582;48.770;9.190;2023-01-28T09:00:10;3.90;99.90
5128;DHT22;2582;48.770;9.190;2023-01-28T09:02:36;4.10;99.90
5128;DHT22;2582;48.770;9.190;2023-01-28T09:05:03;4.30;99.90
5128;DHT22;2582;48.770;9.190;2023-01-28T09:07:29;4.10;99.90
5128;DHT22;2582;48.770;9.190;2023-01-28T09:09:55;4.10;99.90
5128;DHT22;2582;48.770;9.190;2023-01-28T09:12:21;4.30;99.90
5128;DHT22;2582;48.770;9.190;2023-01-28T09:14:47;4.40;99.90
5128;DHT22;2582;48.770;9.190;2023-01-28T09:17:12;4.70;99.90
5128;DHT22;2582;48.770;9.190;2023-01-28T09:19:38;4.80;99.90
5128;DHT22;2582;48.770;9.190;2023-01-28T09:22:03;4.70;99.90
5128;DHT22;2582;48.770;9.190;2023-01-28T09:24:29;4.50;99.90
5128;DHT22;2582;48.770;9.190;2023-01-28T09:26:55;4.70;99.90
5128;DHT22;2582;48.770;9.190;2023-01-28T09:29:20;4.80;99.90
5128;DHT22;2582;48.770;9.190;2023-01-28T09:31:46;4.60;99.90
5128;DHT22;2582;48.770;9.190;2023-01-28T09:34:11;4.50;99.90
5128;DHT22;2582;48.770;9.190;2023-01-28T09:36:37;4.40;99.90
5128;DHT22;2582;48.770;9.190;2023-01-28T09:39:03;4.10;99.90
5128;DHT22;2582;48.770;9.190;2023-01-28T09:41:46;4.20;99.90
5128;DHT22;2582;48.770;9.190;2023-01-28T09:44:37;4.50;99.90
5128;DHT22;2582;48.770;9.190;2023-01-28T09:47:20;4.40;99.90
5128;DHT22;2582;48.770;9.190;2023-01-28T09:49:49;4.40;99.90
5128;DHT22;2582;48.770;9.190;2023-01-28T09:52:18;4.30;99.90
5128;DHT22;2582;48.770;9.190;2023-01-28T09:54:59;4.10;99.90
5128;DHT22;2582;48.770;9.190;2023-01-28T09:57:36;3.80;99.90
5128;DHT22;2582;48.770;9.190;2023-01-28T10:00:08;3.90;99.90
5128;DHT22;2582;48.770;9.190;2023-01-28T10:05:11;4.10;99.90
5128;DHT22;2582;48.770;9.190;2023-01-28T10:10:41;4.20;99.90
5128;DHT22;2582;48.770;9.190;2023-01-28T10:14:12;4.30;99.90
5128;DHT22;2582;48.770;9.190;2023-01-28T10:16:22;4.00;99.90
5128;DHT22;2582;48.770;9.190;2023-01-28T10:19:01;4.00;99.90
5128;DHT22;2582;48.770;9.190;2023-01-28T10:21:38;4.00;99.90
5128;DHT22;2582;48.770;9.190;2023-01-28T10:24:14;3.80;99.90
5128;DHT22;2582;48.770;9.190;2023-01-28T10:26:42;3.90;99.90
5128;DHT22;2582;48.770;9.190;2023-01-28T10:29:19;3.80;99.90
5128;DHT22;2582;48.770;9.190;2023-01-28T10:32:03;3.80;99.90
5128;DHT22;2582;48.770;9.190;2023-01-28T10:34:29;3.90;99.90
5128;DHT22;2582;48.770;9.190;2023-01-28T10:36:56;4.00;99.90
5128;DHT22;2582;48.770;9.190;2023-01-28T10:39:24;4.10;99.90
5128;DHT22;2582;48.770;9.190;2023-01-28T10:41:50;4.00;99.90
5128;DHT22;2582;48.770;9.190;2023-01-28T10:44:29;3.80;99.90
5128;DHT22;2582;48.770;9.190;2023-01-28T10:46:58;3.70;99.90
5128;DHT22;2582;48.770;9.190;2023-01-28T10:49:27;3.80;99.90
5128;DHT22;2582;48.770;9.190;2023-01-28T10:51:53;4.00;99.90
5128;DHT22;2582;48.770;9.190;2023-01-28T10:54:26;4.00;99.90
5128;DHT22;2582;48.770;9.190;2023-01-28T10:56:59;4.10;99.90
5128;DHT22;2582;48.770;9.190;2023-01-28T10:59:33;4.30;99.90
5128;DHT22;2582;48.770;9.190;2023-01-28T11:02:05;4.00;99.90
5128;DHT22;2582;48.770;9.190;2023-01-28T11:04:44;3.80;99.90
5128;DHT22;2582;48.770;9.190;2023-01-28T11:07:20;4.00;99.90
5128;DHT22;2582;48.770;9.190;2023-01-28T11:09:48;4.00;99.90
5128;DHT22;2582;48.770;9.190;2023-01-28T11:12:28;3.90;99.90
5128;DHT22;2582;48.770;9.190;2023-01-28T11:15:02;3.80;99.90
5128;DHT22;2582;48.770;9.190;2023-01-28T11:17:31;4.00;99.90
5128;DHT22;2582;48.770;9.190;2023-01-28T11:20:00;4.10;99.90
5128;DHT22;2582;48.770;9.190;2023-01-28T11:22:41;4.20;99.90
5128;DHT22;2582;48.770;9.190;2023-01-28T11:25:23;4.20;99.90
5128;DHT22;2582;48.770;9.190;2023-01-28T11:27:50;4.30;99.90
5128;DHT22;2582;48.770;9.190;2023-01-28T11:30:21;4.10;99.90
5128;DHT22;2582;48.770;9.190;2023-01-28T11:33:00;4.00;99.90
5128;DHT22;2582;48.770;9.190;2023-01-28T11:35:29;4.10;99.90
5128;DHT22;2582;48.770;9.190;2023-01-28T11:37:56;4.50;99.90
5128;DHT22;2582;48.770;9.190;2023-01-28T11:40:22;4.40;99.90
5128;DHT22;2582;48.770;9.190;2023-01-28T11:42:53;4.30;99.90
5128;DHT22;2582;48.770;9.190;2023-01-28T11:49:02;4.60;99.90
5128;DHT22;2582;48.770;9.190;2023-01-28T11:52:01;4.10;99.90
5128;DHT22;2582;48.770;9.190;2023-01-28T11:54:43;3.80;99.90
5128;DHT22;2582;48.770;9.190;2023-01-28T11:57:26;3.80;99.90
5128;DHT22;2582;48.770;9.190;2023-01-28T12:03:17;4.10;99.90
5128;DHT22;2582;48.770;9.190;2023-01-28T12:05:51;4.20;99.90
5128;DHT22;2582;48.770;9.190;2023-01-28T12:14:17;3.80;99.90
5128;DHT22;2582;48.770;9.190;2023-01-28T12:17:08;4.00;99.90
5128;DHT22;2582;48.770;9.190;2023-01-28T12:20:02;4.10;99.90
5128;DHT22;2582;48.770;9.190;2023-01-28T12:22:58;3.90;99.90
5128;DHT22;2582;48.770;9.190;2023-01-28T12:40:04;4.10;99.90
5128;DHT22;2582;48.770;9.190;2023-01-28T12:45:18;4.00;99.90
5128;DHT22;2582;48.770;9.190;2023-01-28T12:47:57;3.90;99.90
5128;DHT22;2582;48.770;9.190;2023-01-28T12:50:32;3.80;99.90
5128;DHT22;2582;48.770;9.190;2023-01-28T12:53:18;3.70;99.90
5128;DHT22;2582;48.770;9.190;2023-01-28T12:55:49;3.80;99.90
5128;DHT22;2582;48.770;9.190;2023-01-28T12:58:23;3.90;99.90
5128;DHT22;2582;48.770;9.190;2023-01-28T13:00:58;4.10;99.90
5128;DHT22;2582;48.770;9.190;2023-01-28T13:03:34;4.00;99.90
5128;DHT22;2582;48.770;9.190;2023-01-28T13:09:20;4.00;99.90
5128;DHT22;2582;48.770;9.190;2023-01-28T13:11:49;4.20;99.90
5128;DHT22;2582;48.770;9.190;2023-01-28T13:14:17;4.20;99.90
5128;DHT22;2582;48.770;9.190;2023-01-28T13:16:44;4.20;99.90
5128;DHT22;2582;48.770;9.190;2023-01-28T13:21:41;4.00;99.90
5128;DHT22;2582;48.770;9.190;2023-01-28T13:26:53;4.10;99.90
5128;DHT22;2582;48.770;9.190;2023-01-28T13:29:31;4.10;99.90
5128;DHT22;2582;48.770;9.190;2023-01-28T13:32:02;4.10;99.90
5128;DHT22;2582;48.770;9.190;2023-01-28T13:36:55;4.00;99.90
5128;DHT22;2582;48.770;9.190;2023-01-28T13:39:23;3.80;99.90
5128;DHT22;2582;48.770;9.190;2023-01-28T13:41:55;3.80;99.90
5128;DHT22;2582;48.770;9.190;2023-01-28T13:44:33;3.70;99.90
5128;DHT22;2582;48.770;9.190;2023-01-28T13:47:31;3.40;99.90
5128;DHT22;2582;48.770;9.190;2023-01-28T13:50:10;3.50;99.90
5128;DHT22;2582;48.770;9.190;2023-01-28T13:53:03;3.60;99.90
5128;DHT22;2582;48.770;9.190;2023-01-28T13:55:35;3.60;99.90
5128;DHT22;2582;48.770;9.190;2023-01-28T14:14:41;3.90;99.90
5128;DHT22;2582;48.770;9.190;2023-01-28T14:20:02;3.60;99.90
5128;DHT22;2582;48.770;9.190;2023-01-28T14:22:28;3.70;99.90
5128;DHT22;2582;48.770;9.190;2023-01-28T14:24:54;3.80;99.90
5128;DHT22;2582;48.770;9.190;2023-01-28T14:27:26;3.70;99.90
5128;DHT22;2582;48.770;9.190;2023-01-28T14:30:22;3.90;99.90
5128;DHT22;2582;48.770;9.190;2023-01-28T14:32:51;4.10;99.90
5128;DHT22;2582;48.770;9.190;2023-01-28T14:35:31;4.10;99.90
5128;DHT22;2582;48.770;9.190;2023-01-28T14:37:59;4.00;99.90
5128;DHT22;2582;48.770;9.190;2023-01-28T14:40:27;4.10;99.90
5128;DHT22;2582;48.770;9.190;2023-01-28T14:42:54;4.00;99.90
5128;DHT22;2582;48.770;9.190;2023-01-28T14:51:02;3.70;99.90
5128;DHT22;2582;48.770;9.190;2023-01-28T15:01:55;3.60;99.90
5128;DHT22;2582;48.770;9.190;2023-01-28T15:04:34;3.60;99.90
5128;DHT22;2582;48.770;9.190;2023-01-28T15:09:46;3.80;99.90
5128;DHT22;2582;48.770;9.190;2023-01-28T15:12:13;3.70;99.90
5128;DHT22;2582;48.770;9.190;2023-01-28T15:14:41;3.80;99.90
5128;DHT22;2582;48.770;9.190;2023-01-28T15:17:17;3.90;99.90
5128;DHT22;2582;48.770;9.190;2023-01-28T15:19:46;3.70;99.90
5128;DHT22;2582;48.770;9.190;2023-01-28T15:22:14;3.60;99.90
5128;DHT22;2582;48.770;9.190;2023-01-28T15:24:41;3.80;99.90
5128;DHT22;2582;48.770;9.190;2023-01-28T15:27:17;3.90;99.90
5128;DHT22;2582;48.770;9.190;2023-01-28T15:29:51;3.70;99.90
5128;DHT22;2582;48.770;9.190;2023-01-28T15:32:22;3.70;99.90
5128;DHT22;2582;48.770;9.190;2023-01-28T15:34:48;3.50;99.90
5128;DHT22;2582;48.770;9.190;2023-01-28T15:37:15;3.40;99.90
5128;DHT22;2582;48.770;9.190;2023-01-28T15:39:42;3.60;99.90
5128;DHT22;2582;48.770;9.190;2023-01-28T15:42:20;3.50;99.90
5128;DHT22;2582;48.770;9.190;2023-01-28T15:44:48;3.50;99.90
5128;DHT22;2582;48.770;9.190;2023-01-28T15:49:46;3.60;99.90
5128;DHT22;2582;48.770;9.190;2023-01-28T15:52:13;3.40;99.90
5128;DHT22;2582;48.770;9.190;2023-01-28T15:54:44;3.50;99.90
5128;DHT22;2582;48.770;9.190;2023-01-28T15:57:21;3.70;99.90
5128;DHT22;2582;48.770;9.190;2023-01-28T15:59:49;3.80;99.90
5128;DHT22;2582;48.770;9.190;2023-01-28T16:02:23;3.70;99.90
5128;DHT22;2582;48.770;9.190;2023-01-28T16:04:59;3.60;99.90
5128;DHT22;2582;48.770;9.190;2023-01-28T16:07:31;3.60;99.90
5128;DHT22;2582;48.770;9.190;2023-01-28T16:09:58;3.40;99.90
5128;DHT22;2582;48.770;9.190;2023-01-28T16:12:25;3.50;99.90
5128;DHT22;2582;48.770;9.190;2023-01-28T16:14:56;3.50;99.90
5128;DHT22;2582;48.770;9.190;2023-01-28T16:17:40;3.60;99.90
5128;DHT22;2582;48.770;9.190;2023-01-28T16:20:22;3.70;99.90
5128;DHT22;2582;48.770;9.190;2023-01-28T16:22:49;3.80;99.90
5128;DHT22;2582;48.770;9.190;2023-01-28T16:25:25;3.90;99.90
5128;DHT22;2582;48.770;9.190;2023-01-28T16:27:52;3.70;99.90
5128;DHT22;2582;48.770;9.190;2023-01-28T16:30:17;3.80;99.90
5128;DHT22;2582;48.770;9.190;2023-01-28T16:32:44;3.80;99.90
5128;DHT22;2582;48.770;9.190;2023-01-28T16:35:15;3.60;99.90
5128;DHT22;2582;48.770;9.190;2023-01-28T16:37:45;3.50;99.90
5128;DHT22;2582;48.770;9.190;2023-01-28T16:40:13;3.50;99.90
5128;DHT22;2582;48.770;9.190;2023-01-28T16:42:39;3.60;99.90
5128;DHT22;2582;48.770;9.190;2023-01-28T16:45:05;3.70;99.90
5128;DHT22;2582;48.770;9.190;2023-01-28T16:47:31;3.60;99.90
5128;DHT22;2582;48.770;9.190;2023-01-28T16:49:56;3.70;99.90
5128;DHT22;2582;48.770;9.190;2023-01-28T16:52:22;3.70;99.90
5128;DHT22;2582;48.770;9.190;2023-01-28T16:54:47;3.40;99.90
5128;DHT22;2582;48.770;9.190;2023-01-28T16:57:16;3.40;99.90
5128;DHT22;2582;48.770;9.190;2023-01-28T16:59:42;3.50;99.90
5128;DHT22;2582;48.770;9.190;2023-01-28T17:02:12;3.80;99.90
5128;DHT22;2582;48.770;9.190;2023-01-28T17:04:39;3.80;99.90
5128;DHT22;2582;48.770;9.190;2023-01-28T17:07:05;3.70;99.90
5128;DHT22;2582;48.770;9.190;2023-01-28T17:09:31;3.70;99.90
5128;DHT22;2582;48.770;9.190;2023-01-28T17:11:57;3.70;99.90
5128;DHT22;2582;48.770;9.190;2023-01-28T17:14:22;3.70;99.90
5128;DHT22;2582;48.770;9.190;2023-01-28T17:16:48;3.60;99.90
5128;DHT22;2582;48.770;9.190;2023-01-28T17:19:15;3.60;99.90
5128;DHT22;2582;48.770;9.190;2023-01-28T17:21:41;3.60;99.90
5128;DHT22;2582;48.770;9.190;2023-01-28T17:24:06;3.70;99.90
5128;DHT22;2582;48.770;9.190;2023-01-28T17:26:32;3.70;99.90
5128;DHT22;2582;48.770;9.190;2023-01-28T17:28:59;3.90;99.90
5128;DHT22;2582;48.770;9.190;2023-01-28T17:31:25;4.10;99.90
5128;DHT22;2582;48.770;9.190;2023-01-28T17:33:55;3.70;99.90
5128;DHT22;2582;48.770;9.190;2023-01-28T17:36:22;3.80;99.90
5128;DHT22;2582;48.770;9.190;2023-01-28T17:38:48;4.00;99.90
5128;DHT22;2582;48.770;9.190;2023-01-28T17:41:14;4.00;99.90
5128;DHT22;2582;48.770;9.190;2023-01-28T17:43:41;3.90;99.90
5128;DHT22;2582;48.770;9.190;2023-01-28T17:46:14;3.70;99.90
5128;DHT22;2582;48.770;9.190;2023-01-28T17:48:40;3.70;99.90
5128;DHT22;2582;48.770;9.190;2023-01-28T17:51:07;3.70;99.90
5128;DHT22;2582;48.770;9.190;2023-01-28T17:53:33;3.60;99.90
5128;DHT22;2582;48.770;9.190;2023-01-28T17:55:58;3.60;99.90
5128;DHT22;2582;48.770;9.190;2023-01-28T17:58:24;3.60;99.90
5128;DHT22;2582;48.770;9.190;2023-01-28T18:00:49;3.70;99.90
5128;DHT22;2582;48.770;9.190;2023-01-28T18:03:15;3.40;99.90
5128;DHT22;2582;48.770;9.190;2023-01-28T18:05:41;3.40;99.90
5128;DHT22;2582;48.770;9.190;2023-01-28T18:08:07;3.40;99.90
5128;DHT22;2582;48.770;9.190;2023-01-28T18:10:33;3.60;99.90
5128;DHT22;2582;48.770;9.190;2023-01-28T18:13:00;3.80;99.90
5128;DHT22;2582;48.770;9.190;2023-01-28T18:15:25;4.00;99.90
5128;DHT22;2582;48.770;9.190;2023-01-28T18:17:52;4.00;99.90
5128;DHT22;2582;48.770;9.190;2023-01-28T18:20:18;4.10;99.90
5128;DHT22;2582;48.770;9.190;2023-01-28T18:22:44;4.10;99.90
5128;DHT22;2582;48.770;9.190;2023-01-28T18:25:16;4.20;99.90